Aktualne dane pomiarowe

Uwaga, wersja testowa! Automatyczne pobieranie danych za pomocą narzędzi lub skryptów to umożliwiających jest zabronione.

Dane meteo z obszaru Polski uzyskane na podstawie depesz SYNOP pobieranych co godzinę z NWS. Najedź myszką na symbol przedstawiony w tabeli, aby uzyskać informacje co do jego znaczenia. Prosimy pamiętać, że to testowa wersja strony, która jeszcze nie jest ukończona. Stworzono również jest krótki FAQ dotyczący korzystania z tej podstrony Anomalie temperatury w chwili obecnej odniesione są do okresu referencyjnego 1951-2016. Okres ten będzie później zmieniony na 1981-2010. Kliknij ikonę aby pobrać plik CSV. Kliknij ikonę aby wygenerować mapę synoptyczną dla danego terminu.

Wybierz Datę:    

        

Łódź (12465)

Dane terminowe dla wybranej stacji. Kliknij datę, aby otrzymać dane z tego terminu dla wszystkich stacji.

TemperaturaZachmurzenieWiatrCiśnienieOpadyPogoda
 Data t td wb tx tn tg rh  Nt Nl Cl Cm Ch ws wd g1 g2 wx mslp ppp ch 24h 12h t ww ww w1 w2  
2019-08-10 23:00:00 18.1 16.4 16.9--- 9020.0wxwxwx2wx--21015.8 994.4 0.7---------
2019-08-10 22:00:00 19.2 17.2 17.8--- 8820.0wxwxwxwx3wx--31015.5 994.2 0.6---------
2019-08-10 21:00:00 19.9 17.5 18.2--- 8620.0wxwxwxwx3wx--31015.1 993.9 1.4---wx-w1--
2019-08-10 20:00:00 20.2 18.6 19.0--- 9120.0wxwxwxwx5wx--51014.9 993.7 1.9---wx-w1w2--
2019-08-10 19:00:00 21.4 18.3 19.2--- 8320.0wxwxwxwx5wx--51014.7 993.6 1.9---wx---
2019-08-10 18:00:00 22.2 17.9 19.2 29.1 18.1- 7720.0wxwxwxwx4wx--41013.5 992.5 0.8- 0.412wx-w1--
2019-08-10 17:00:00 24.2 17.3 19.6--- 6520.0wxwxwxwx4wx--41012.7 991.8 0.9---wx-w1--
2019-08-10 16:00:00 25.7 17.4 20.2--- 6020.0wxwxwxwx5wx--51012.4 991.7 1.0---wx---
2019-08-10 15:00:00 27.4 17.4 20.8--- 5520.0wxwxwxwx6wx--61012.3 991.7 1.1---------
2019-08-10 14:00:00 28.3 17.3 21.1--- 5120.0wxwxwxwx7wx--71011.5 990.9 0.3---------
2019-08-10 13:00:00 28.3 17.0 20.9--- 5020.0wxwxwxwx6wx--61011.2 990.7 -0.3---------
2019-08-10 12:00:00 28.2 16.2 20.4--- 4820.0wxwxwxwx4wx--41011.2 990.6 -0.6--6wx-w1--
2019-08-10 11:00:00 27.9 15.6 20.0--- 4720.0wxwxwxwxwx3wx--31011.2 990.6 -0.6---------
2019-08-10 10:00:00 25.5 15.3 18.9--- 5320.0wxwxwxwx2wx--21011.7 991.0 -0.3---------
2019-08-10 09:00:00 21.1 13.6 16.3--- 6220.0wxwxwxwx2wx--21012.3 991.2 0.0---wx---
2019-08-10 08:00:00 20.8 13.3 16.0--- 6220.0wx-wx2wx--21012.3 991.2 -0.2---------
2019-08-10 07:00:00 19.4 11.9 14.7--- 6220.0wx-wx2wx---1012.5 991.3 -0.7---------
2019-08-10 06:00:00 18.1 11.4 13.9 23.6 13.9 11 6520.0wx-wx3wx--31012.5 991.2 -1.1- 0.012----- 12.5
2019-08-10 05:00:00 17.4 11.2 13.5--- 6720.0wx-wx2wx--21012.7 991.4 -1.2---------
2019-08-10 04:00:00 16.7 10.8 13.0--- 6820.0wx-wx2wx--21013.4 992.0 -0.7---------
2019-08-10 03:00:00 15.9 11.1 12.8--- 7320.0wx-wx3wx--31013.8 992.3 -0.3---------
2019-08-10 02:00:00 14.4 10.8 12.0--- 7920.0wx-wxwx2wx--21014.2 992.6 -0.3---------
2019-08-10 01:00:00 15.7 11.1 12.7--- 7420.0wx-wx2wx--21014.2 992.7 -0.1---------
2019-08-10 00:00:00 14.3 10.9 12.1--- 8020.0wx-2wx--21014.2 992.6 -0.3- 0.06------
2019-08-09 23:00:00 14.5 12.2 12.9--- 8620.0wx-1wx--11014.5 992.9 0.2---------
2019-08-09 22:00:00 14.0 11.9 12.6--- 8720.0wx-wxwx1wx--11014.4 992.8 0.5---------
2019-08-09 21:00:00 14.8 11.9 12.8--- 8320.0wx-wx1wx---1014.5 992.9 1.1---------
2019-08-09 20:00:00 16.0 12.0 13.4--- 7720.0wx-wxwx0---01014.2 992.7 1.2---------
2019-08-09 19:00:00 18.3 12.1 14.4--- 6720.0wx-wxwx1wx--11013.6 992.3 1.0---------
2019-08-09 18:00:00 23.6 10.0 15.6 26.9 17.9- 4220.0wx-wxwx2wx-1121012.7 991.8 0.5- 0.012------
2019-08-09 17:00:00 25.0 9.4 15.9--- 3720.0wx-wxwx2wx---1012.3 991.5 0.0---------
2019-08-09 16:00:00 25.9 8.5 15.9--- 3320.0wxwxwxwx4wx---1012.0 991.3 -0.3---------
2019-08-09 15:00:00 26.6 8.6 16.2--- 3220.0wxwxwxwx6wx-1161012.0 991.3 -0.4---------
2019-08-09 14:00:00 26.5 9.0 16.4--- 3320.0wxwxwxwx5wx--51012.2 991.5 -0.3---------
2019-08-09 13:00:00 26.7 9.2 16.5--- 3320.0wxwxwxwx6wx111161012.3 991.6 -0.7---------
2019-08-09 12:00:00 26.0 9.9 16.5--- 3620.0wxwxwxwx4--1241012.4 991.7 -0.5- 0.06------
2019-08-09 11:00:00 25.2 9.6 16.1--- 3720.0wxwxwxwx5wx---1012.6 991.8 -0.4---------
2019-08-09 10:00:00 24.3 9.9 15.8--- 4020.0wxwxwx5wx-951013.2 992.3 0.2---------
2019-08-09 09:00:00 24.4 10.7 16.3--- 4220.0wxwxwx4wx--41013.1 992.2 0.1---------
2019-08-09 08:00:00 23.1 10.6 15.7--- 4520.0wxwxwx3wx--31013.1 992.2 0.3---------
2019-08-09 07:00:00 20.8 12.8 15.8--- 6020.0wxwxwx2wx--21013.2 992.1 0.5---------
2019-08-09 06:00:00 18.0 13.5 15.0 22.4 12.0 10 7520.0wx-wx2wx--21013.4 992.1 0.4--12-22--- 10.1
2019-08-09 05:00:00 15.0 12.9 13.5--- 8720.0wxwxwx1wx--11013.4 991.9 0.4----22----
2019-08-09 04:00:00 12.2 11.3 11.5--- 9412.0wxwxwxwx1wx--11013.3 991.6 0.2----22----
2019-08-09 03:00:00 12.5 11.7 11.9--- 9512.0wxwxwxwxwx0---01013.4 991.7 0.3---wx22--
2019-08-09 02:00:00 13.2 11.9 12.3--- 9215.0wx-wxwx1wx--11013.2 991.5 0.2----22----
2019-08-09 01:00:00 15.2 13.2 13.8--- 8820.0wx-wxwx2wx---1012.9 991.4 0.6---------
2019-08-09 00:00:00 16.9 13.0 14.3--- 7820.0wx-wxwx2wx-921012.8 991.4 1.0--6wx-w1--
2.1 ms

 

Print Friendly, PDF & Email